Time;durP1;ratioP1;P1;durP2;ratioP2;P2;SDS_P1;SDS_P2;PMS_P1;PMS_P2;Temp;Humidity;BMP_temperature;BMP_pressure;BME280_temperature;BME280_humidity;BME280_pressure;Samples;Min_cycle;Max_cycle;Signal;HPM_P1;HPM_P2
2022/08/29 00:00:17;;;;;;;7.47;2.50;;;16.00;68.00;;;;;;4972990;28;20054;-74
2022/08/29 00:02:47;;;;;;;6.07;2.50;;;16.00;68.00;;;;;;4973280;28;20258;-74
2022/08/29 00:05:14;;;;;;;7.10;2.20;;;16.00;68.10;;;;;;4973215;28;20043;-74
2022/08/29 00:07:41;;;;;;;9.63;2.80;;;15.90;68.10;;;;;;4991297;28;20347;-74
2022/08/29 00:10:09;;;;;;;7.60;2.33;;;15.90;68.10;;;;;;4972806;28;20137;-74
2022/08/29 00:12:37;;;;;;;7.00;2.40;;;15.80;68.10;;;;;;4973528;28;20168;-74
2022/08/29 00:15:05;;;;;;;6.85;2.30;;;15.80;68.20;;;;;;4973495;28;20257;-74
2022/08/29 00:17:32;;;;;;;6.25;2.60;;;15.80;68.20;;;;;;4991227;28;20498;-74
2022/08/29 00:20:00;;;;;;;5.45;2.33;;;15.80;68.20;;;;;;4972655;28;20055;-73
2022/08/29 00:22:27;;;;;;;7.50;2.42;;;15.80;68.30;;;;;;4972996;28;20051;-74
2022/08/29 00:24:54;;;;;;;7.67;2.60;;;15.80;68.30;;;;;;4990414;28;20070;-74
2022/08/29 00:27:21;;;;;;;8.55;2.63;;;15.80;68.30;;;;;;4972827;28;20291;-74
2022/08/29 00:29:48;;;;;;;6.80;2.63;;;15.80;68.30;;;;;;4972745;28;20061;-74
2022/08/29 00:32:15;;;;;;;6.43;2.75;;;15.80;68.30;;;;;;4990638;28;20146;-74
2022/08/29 00:34:41;;;;;;;6.40;2.45;;;15.80;68.40;;;;;;4990773;28;20372;-74
2022/08/29 00:37:10;;;;;;;7.10;2.60;;;15.80;68.40;;;;;;4972833;28;20043;-74
2022/08/29 00:39:37;;;;;;;7.68;2.70;;;15.80;68.50;;;;;;4990181;28;20270;-74
2022/08/29 00:42:04;;;;;;;8.73;2.63;;;15.80;68.60;;;;;;4989217;28;20528;-74
2022/08/29 00:44:31;;;;;;;7.60;2.70;;;15.80;68.60;;;;;;4972614;28;20043;-74
2022/08/29 00:47:07;;;;;;;6.60;2.53;;;15.80;68.70;;;;;;4990904;28;20050;-74
2022/08/29 00:49:39;;;;;;;7.13;2.70;;;15.80;68.90;;;;;;4975181;28;20054;-74
2022/08/29 00:52:16;;;;;;;6.78;2.80;;;15.80;68.70;;;;;;4976012;28;20257;-74
2022/08/29 00:54:44;;;;;;;7.03;2.55;;;15.80;68.90;;;;;;4993633;28;20143;-74
2022/08/29 00:57:12;;;;;;;6.00;2.30;;;15.80;68.70;;;;;;4993760;28;20057;-74
2022/08/29 00:59:40;;;;;;;6.72;2.90;;;15.80;68.80;;;;;;4975785;28;20043;-74
2022/08/29 01:02:09;;;;;;;7.57;2.47;;;15.80;68.80;;;;;;4976279;28;20171;-74
2022/08/29 01:04:38;;;;;;;8.75;2.60;;;15.80;69.00;;;;;;4993721;28;20261;-74
2022/08/29 01:07:05;;;;;;;7.90;2.67;;;15.80;69.00;;;;;;4993491;28;20058;-74
2022/08/29 01:09:37;;;;;;;7.22;2.50;;;15.80;69.10;;;;;;4993499;28;20130;-74
2022/08/29 01:12:16;;;;;;;5.03;2.22;;;15.80;69.10;;;;;;4992197;28;20687;-74
2022/08/29 01:14:46;;;;;;;9.33;2.80;;;15.70;68.90;;;;;;4992201;28;20043;-74
2022/08/29 01:17:17;;;;;;;7.40;2.92;;;15.80;69.00;;;;;;4975500;28;20289;-74
2022/08/29 01:19:49;;;;;;;7.40;2.92;;;15.70;69.10;;;;;;4993077;28;20090;-74
2022/08/29 01:22:47;;;;;;;8.88;2.65;;;15.70;69.10;;;;;;4992131;28;20501;-74
2022/08/29 01:25:18;;;;;;;6.47;2.30;;;15.70;69.20;;;;;;4991657;28;20517;-74
2022/08/29 01:27:50;;;;;;;7.80;2.63;;;15.60;69.20;;;;;;4993231;28;20137;-74
2022/08/29 01:30:17;;;;;;;6.25;1.90;;;15.60;69.20;;;;;;4992765;28;20294;-74
2022/08/29 01:32:44;;;;;;;8.18;2.70;;;15.60;69.40;;;;;;4975370;28;20050;-74
2022/08/29 01:35:11;;;;;;;8.63;2.33;;;15.60;69.10;;;;;;4975518;28;20043;-74
2022/08/29 01:37:41;;;;;;;6.05;2.28;;;15.60;69.20;;;;;;4993013;28;20055;-74
2022/08/29 01:40:09;;;;;;;7.77;2.60;;;15.60;69.40;;;;;;4975269;28;20059;-74
2022/08/29 01:42:38;;;;;;;6.63;2.00;;;15.60;69.40;;;;;;4992839;28;20259;-74
2022/08/29 01:45:07;;;;;;;6.13;2.30;;;15.60;69.40;;;;;;4975268;28;20078;-74
2022/08/29 01:47:35;;;;;;;6.82;2.60;;;15.60;69.30;;;;;;4975355;28;20062;-74
2022/08/29 01:50:02;;;;;;;7.25;2.58;;;15.60;69.20;;;;;;4974927;28;20420;-74
2022/08/29 01:52:31;;;;;;;6.37;2.37;;;15.60;69.10;;;;;;4975375;28;20069;-74
2022/08/29 01:54:57;;;;;;;7.07;2.60;;;15.60;69.10;;;;;;4975377;28;20263;-74
2022/08/29 01:57:25;;;;;;;6.50;2.53;;;15.60;69.20;;;;;;4974266;28;20114;-74
2022/08/29 01:59:53;;;;;;;7.13;2.72;;;15.60;69.00;;;;;;4991084;28;20532;-74
2022/08/29 02:02:23;;;;;;;6.72;2.45;;;15.60;69.00;;;;;;4975637;28;20450;-74
2022/08/29 02:04:50;;;;;;;8.57;2.63;;;15.60;69.00;;;;;;4974928;28;20150;-74
2022/08/29 02:07:20;;;;;;;8.60;2.70;;;15.60;68.90;;;;;;4992266;28;20293;-74
2022/08/29 02:09:47;;;;;;;7.00;2.10;;;15.70;68.90;;;;;;4992414;28;20125;-74
2022/08/29 02:12:15;;;;;;;7.35;2.60;;;15.70;68.90;;;;;;4974939;28;20043;-74
2022/08/29 02:14:42;;;;;;;7.63;2.50;;;15.70;68.80;;;;;;4992454;28;20555;-74
2022/08/29 02:17:11;;;;;;;6.93;2.60;;;15.80;68.80;;;;;;4974734;28;20055;-74
2022/08/29 02:19:38;;;;;;;6.35;2.30;;;15.80;68.80;;;;;;4991995;28;20350;-74
2022/08/29 02:22:06;;;;;;;7.78;2.38;;;15.80;68.60;;;;;;4990791;28;20077;-74
2022/08/29 02:24:33;;;;;;;7.80;2.67;;;15.80;68.60;;;;;;4991299;28;20051;-74
2022/08/29 02:27:00;;;;;;;8.18;2.53;;;15.80;68.50;;;;;;4974718;28;20521;-74
2022/08/29 02:29:28;;;;;;;7.73;2.53;;;15.80;68.30;;;;;;4992312;28;20457;-74
2022/08/29 02:31:55;;;;;;;6.93;2.28;;;15.80;68.40;;;;;;4992280;28;20811;-74
2022/08/29 02:34:23;;;;;;;8.05;2.50;;;15.80;68.60;;;;;;4992253;28;20141;-74
2022/08/29 02:36:51;;;;;;;6.65;2.70;;;15.80;68.60;;;;;;4992192;28;20054;-74
2022/08/29 02:39:19;;;;;;;6.35;2.47;;;15.80;68.70;;;;;;4974494;28;20057;-74
2022/08/29 02:41:46;;;;;;;8.80;2.73;;;15.90;68.70;;;;;;4974576;28;20440;-74
2022/08/29 02:44:13;;;;;;;6.97;2.10;;;15.80;68.70;;;;;;4991877;28;20840;-74
2022/08/29 02:46:40;;;;;;;9.10;2.42;;;15.80;68.90;;;;;;4990752;28;20513;-74
2022/08/29 02:49:07;;;;;;;6.68;2.30;;;15.80;68.90;;;;;;4991729;28;20061;-74
2022/08/29 02:51:35;;;;;;;6.28;2.70;;;15.80;69.00;;;;;;4990778;28;20146;-74
2022/08/29 02:54:03;;;;;;;9.47;2.60;;;15.80;69.00;;;;;;4974173;28;20529;-74
2022/08/29 02:56:30;;;;;;;6.15;2.35;;;15.80;69.10;;;;;;4973985;28;20301;-74
2022/08/29 02:58:57;;;;;;;8.00;2.42;;;15.80;69.30;;;;;;4973635;28;20050;-74
2022/08/29 03:01:25;;;;;;;8.35;2.45;;;15.80;69.30;;;;;;4992089;28;20051;-74
2022/08/29 03:03:52;;;;;;;7.25;2.90;;;15.80;69.30;;;;;;4973962;28;20567;-74
2022/08/29 03:06:20;;;;;;;7.20;2.50;;;15.80;69.30;;;;;;4974126;28;20133;-74
2022/08/29 03:08:49;;;;;;;6.63;2.28;;;15.80;69.30;;;;;;4991315;28;20362;-74
2022/08/29 03:11:16;;;;;;;6.15;2.42;;;15.80;69.50;;;;;;4973991;28;20121;-74
2022/08/29 03:13:43;;;;;;;6.97;2.72;;;15.80;69.30;;;;;;4991542;28;20143;-74
2022/08/29 03:16:11;;;;;;;7.97;2.60;;;15.80;69.40;;;;;;4991586;28;20054;-74
2022/08/29 03:18:38;;;;;;;9.07;2.80;;;15.80;69.40;;;;;;4973955;28;20046;-74
2022/08/29 03:21:05;;;;;;;7.80;2.65;;;15.80;69.40;;;;;;4973519;28;20254;-74
2022/08/29 03:23:32;;;;;;;6.75;2.50;;;15.80;69.30;;;;;;4973834;28;20055;-74
2022/08/29 03:26:01;;;;;;;10.18;2.85;;;15.80;69.30;;;;;;4974159;28;20102;-74
2022/08/29 03:28:28;;;;;;;8.93;2.88;;;15.80;69.50;;;;;;4991423;28;20129;-74
2022/08/29 03:30:55;;;;;;;7.40;2.50;;;15.80;69.60;;;;;;4991087;28;20055;-74
2022/08/29 03:33:21;;;;;;;9.23;3.05;;;15.80;69.60;;;;;;4973542;28;20286;-74
2022/08/29 03:35:48;;;;;;;7.22;2.63;;;15.80;69.70;;;;;;4991570;28;20137;-74
2022/08/29 03:38:16;;;;;;;6.85;2.40;;;15.80;69.70;;;;;;4973426;28;20042;-74
2022/08/29 03:40:43;;;;;;;9.65;2.75;;;15.80;69.90;;;;;;4991091;28;20054;-74
2022/08/29 03:43:11;;;;;;;6.40;2.77;;;15.80;69.90;;;;;;4973792;28;20043;-74
2022/08/29 03:45:38;;;;;;;9.35;2.63;;;15.80;70.10;;;;;;4991369;28;20298;-74
2022/08/29 03:48:05;;;;;;;7.47;2.55;;;15.80;70.20;;;;;;4973725;28;20054;-74
2022/08/29 03:50:32;;;;;;;7.25;2.55;;;15.80;70.40;;;;;;4990970;28;20552;-74
2022/08/29 03:53:00;;;;;;;8.43;2.65;;;15.80;70.50;;;;;;4990887;28;20082;-74
2022/08/29 03:55:26;;;;;;;6.67;2.43;;;15.80;70.50;;;;;;4991238;28;20501;-74
2022/08/29 03:57:55;;;;;;;6.93;2.33;;;15.80;70.60;;;;;;4973279;28;20259;-74
2022/08/29 04:00:24;;;;;;;8.13;2.20;;;15.80;70.70;;;;;;4973445;28;20099;-74
2022/08/29 04:02:52;;;;;;;5.55;2.40;;;15.80;70.80;;;;;;4973684;28;20653;-74
2022/08/29 04:05:19;;;;;;;7.05;2.65;;;15.80;71.00;;;;;;4973365;28;20051;-74
2022/08/29 04:07:49;;;;;;;7.10;2.40;;;15.80;71.00;;;;;;4973234;28;20057;-74
2022/08/29 04:10:20;;;;;;;7.53;2.60;;;15.80;71.00;;;;;;4973293;28;20270;-74
2022/08/29 04:12:47;;;;;;;9.27;2.60;;;15.80;71.10;;;;;;4990931;28;20086;-74
2022/08/29 04:15:14;;;;;;;6.45;2.28;;;15.80;71.10;;;;;;4972941;28;20061;-74
2022/08/29 04:17:43;;;;;;;8.02;2.40;;;15.80;71.20;;;;;;4973007;28;20528;-74
2022/08/29 04:20:12;;;;;;;7.17;2.47;;;15.80;71.20;;;;;;4972804;28;20126;-74
2022/08/29 04:22:41;;;;;;;6.25;2.38;;;15.80;71.30;;;;;;4992371;28;20303;-74
2022/08/29 04:25:10;;;;;;;6.75;2.53;;;15.80;71.20;;;;;;4993950;28;20531;-74
2022/08/29 04:27:38;;;;;;;7.50;2.90;;;15.70;71.50;;;;;;4976481;28;20042;-74
2022/08/29 04:30:08;;;;;;;7.65;2.40;;;15.80;71.60;;;;;;4976184;28;20075;-74
2022/08/29 04:32:35;;;;;;;7.27;2.57;;;15.70;71.60;;;;;;4993746;28;20047;-74
2022/08/29 04:35:03;;;;;;;6.72;2.40;;;15.60;71.70;;;;;;4992650;28;20293;-74
2022/08/29 04:37:31;;;;;;;8.00;2.80;;;15.60;71.80;;;;;;4976305;28;20061;-74
2022/08/29 04:39:58;;;;;;;7.47;2.38;;;15.60;71.90;;;;;;4993794;28;20078;-74
2022/08/29 04:42:25;;;;;;;9.70;2.80;;;15.60;72.20;;;;;;4993740;28;20126;-74
2022/08/29 04:44:52;;;;;;;12.63;3.00;;;15.60;72.10;;;;;;4976020;28;20047;-74
2022/08/29 04:47:21;;;;;;;7.78;2.70;;;15.60;72.10;;;;;;4975872;28;20262;-74
2022/08/29 04:49:53;;;;;;;7.53;2.50;;;15.60;72.10;;;;;;4993428;28;20404;-74
2022/08/29 04:52:21;;;;;;;8.20;3.00;;;15.60;72.10;;;;;;4993632;28;20054;-74
2022/08/29 04:54:48;;;;;;;8.35;2.47;;;15.60;72.30;;;;;;4975993;28;20053;-74
2022/08/29 04:57:17;;;;;;;5.70;2.40;;;15.60;72.40;;;;;;4991933;28;20058;-74
2022/08/29 04:59:44;;;;;;;7.20;2.25;;;15.60;72.30;;;;;;4993376;28;20270;-74
2022/08/29 05:02:11;;;;;;;6.93;2.70;;;15.60;72.20;;;;;;4975620;28;20047;-74
2022/08/29 05:04:38;;;;;;;11.18;2.83;;;15.60;72.10;;;;;;4975893;28;20047;-74
2022/08/29 05:07:05;;;;;;;5.55;2.50;;;15.70;72.30;;;;;;4976211;28;20043;-74
2022/08/29 05:09:33;;;;;;;8.77;2.57;;;15.70;72.30;;;;;;4993616;28;20054;-74
2022/08/29 05:12:01;;;;;;;8.43;2.40;;;15.70;72.10;;;;;;4976400;28;20330;-74
2022/08/29 05:14:28;;;;;;;8.82;3.00;;;15.80;72.00;;;;;;4975890;28;20504;-74
2022/08/29 05:16:55;;;;;;;8.52;2.60;;;15.80;71.90;;;;;;4993735;28;20142;-74
2022/08/29 05:19:22;;;;;;;7.10;2.58;;;15.80;71.80;;;;;;4959738;28;20142;-74
2022/08/29 05:21:55;;;;;;;7.50;2.50;;;15.80;71.60;;;;;;4976142;28;20145;-74
2022/08/29 05:24:22;;;;;;;5.40;2.00;;;15.80;71.50;;;;;;4993677;28;20283;-74
2022/08/29 05:26:51;;;;;;;7.78;2.50;;;15.80;72.20;;;;;;4975855;28;20074;-74
2022/08/29 05:29:19;;;;;;;8.32;2.60;;;15.80;72.60;;;;;;4992995;28;20097;-74
2022/08/29 05:31:47;;;;;;;8.40;2.65;;;15.80;72.80;;;;;;4992494;28;20063;-74
2022/08/29 05:34:14;;;;;;;7.13;2.40;;;15.80;72.90;;;;;;4992511;28;20050;-74
2022/08/29 05:36:41;;;;;;;6.80;2.45;;;15.80;73.20;;;;;;4975590;28;20385;-74
2022/08/29 05:39:08;;;;;;;6.72;2.30;;;15.80;73.20;;;;;;4974691;28;20059;-74
2022/08/29 05:41:35;;;;;;;6.65;2.20;;;15.80;73.50;;;;;;4973980;28;20053;-74
2022/08/29 05:44:03;;;;;;;9.05;2.33;;;15.80;73.60;;;;;;4974471;28;20580;-74
2022/08/29 05:46:30;;;;;;;6.63;2.10;;;15.80;73.70;;;;;;4973350;28;20050;-74
2022/08/29 05:48:57;;;;;;;6.43;2.00;;;15.80;73.90;;;;;;4965084;28;20340;-74
2022/08/29 05:51:24;;;;;;;5.53;2.22;;;15.80;74.30;;;;;;4990973;28;20141;-74
2022/08/29 05:53:51;;;;;;;7.75;2.50;;;15.80;74.40;;;;;;4973339;28;20088;-74
2022/08/29 05:56:23;;;;;;;6.93;2.28;;;15.80;74.50;;;;;;4973185;28;20425;-75
2022/08/29 05:58:50;;;;;;;7.13;2.37;;;15.80;74.60;;;;;;4988781;28;20162;-74
2022/08/29 06:01:24;;;;;;;5.32;2.08;;;15.80;74.80;;;;;;4974797;28;20255;-74
2022/08/29 06:03:52;;;;;;;8.40;2.25;;;15.90;75.00;;;;;;4993182;28;20497;-74
2022/08/29 06:06:20;;;;;;;8.23;2.10;;;15.90;75.00;;;;;;4992987;28;20062;-74
2022/08/29 06:08:48;;;;;;;7.60;2.28;;;15.90;74.50;;;;;;4992016;28;20047;-74
2022/08/29 06:11:17;;;;;;;6.83;2.30;;;16.00;74.70;;;;;;4975115;28;20055;-74
2022/08/29 06:13:44;;;;;;;6.60;2.22;;;16.00;74.70;;;;;;4972963;28;20314;-74
2022/08/29 06:16:12;;;;;;;7.55;2.40;;;16.00;75.30;;;;;;4992007;28;20050;-75
2022/08/29 06:18:41;;;;;;;7.47;1.88;;;16.00;75.50;;;;;;4958579;28;20054;-75
2022/08/29 06:21:10;;;;;;;6.50;2.10;;;16.00;75.90;;;;;;4973604;28;20051;-75
2022/08/29 06:23:37;;;;;;;7.63;1.73;;;16.10;75.90;;;;;;4990841;28;20058;-75
2022/08/29 06:26:04;;;;;;;8.18;2.00;;;16.10;75.80;;;;;;4973156;28;20263;-75
2022/08/29 06:28:32;;;;;;;6.50;1.80;;;16.20;76.10;;;;;;4974015;28;20051;-76
2022/08/29 06:31:06;;;;;;;7.25;1.98;;;16.20;76.00;;;;;;4973733;28;20057;-75
2022/08/29 06:33:33;;;;;;;8.95;2.03;;;16.20;76.10;;;;;;4990913;28;20088;-75
2022/08/29 06:36:02;;;;;;;7.13;1.93;;;16.30;76.10;;;;;;4990285;28;20117;-75
2022/08/29 06:38:29;;;;;;;6.95;1.90;;;16.30;76.00;;;;;;4990675;28;20261;-75
2022/08/29 06:40:56;;;;;;;6.63;1.83;;;16.40;76.10;;;;;;4991246;28;20081;-75
2022/08/29 06:43:23;;;;;;;6.38;2.03;;;16.40;76.00;;;;;;4987955;28;20051;-76
2022/08/29 06:45:50;;;;;;;7.30;2.05;;;16.40;76.00;;;;;;4991978;28;20058;-76
2022/08/29 06:48:17;;;;;;;6.83;1.73;;;16.40;75.50;;;;;;4992017;28;20061;-75
2022/08/29 06:50:44;;;;;;;5.50;1.88;;;16.50;76.20;;;;;;4991273;28;20255;-76
2022/08/29 06:53:12;;;;;;;8.43;1.55;;;16.50;75.80;;;;;;4992239;28;20051;-75
2022/08/29 06:55:39;;;;;;;5.35;1.75;;;16.60;75.70;;;;;;4958393;28;20517;-75
2022/08/29 06:58:06;;;;;;;8.18;1.85;;;16.60;75.70;;;;;;4991807;28;20057;-75
2022/08/29 07:00:34;;;;;;;3.83;1.53;;;16.60;75.80;;;;;;4974053;28;20047;-75
2022/08/29 07:03:00;;;;;;;5.82;1.75;;;16.70;75.70;;;;;;4974161;28;20728;-75
2022/08/29 07:05:28;;;;;;;7.30;1.90;;;16.70;76.50;;;;;;4974114;28;20054;-75
2022/08/29 07:07:55;;;;;;;6.03;1.67;;;16.70;76.40;;;;;;4974047;28;20051;-74
2022/08/29 07:10:23;;;;;;;7.82;2.13;;;16.80;76.60;;;;;;4973549;28;20039;-74
2022/08/29 07:12:51;;;;;;;7.27;1.70;;;16.80;76.50;;;;;;4991428;28;20070;-75
2022/08/29 07:15:43;;;;;;;8.60;1.60;;;16.90;76.40;;;;;;4992814;28;20630;-75
2022/08/29 07:18:10;;;;;;;7.32;1.73;;;16.90;76.00;;;;;;4987704;28;20130;-75
2022/08/29 07:20:38;;;;;;;6.65;1.60;;;16.90;76.10;;;;;;4973038;28;20134;-75
2022/08/29 07:23:05;;;;;;;6.43;1.70;;;17.00;75.70;;;;;;4989366;28;20444;-75
2022/08/29 07:25:34;;;;;;;5.97;1.60;;;17.00;75.80;;;;;;4973226;28;20050;-75
2022/08/29 07:28:01;;;;;;;7.40;1.80;;;17.00;75.80;;;;;;4973064;28;20265;-75
2022/08/29 07:30:28;;;;;;;6.88;1.40;;;17.00;75.70;;;;;;4991071;28;20078;-74
2022/08/29 07:32:55;;;;;;;6.80;1.45;;;17.10;75.60;;;;;;4973570;28;20054;-75
2022/08/29 07:35:23;;;;;;;6.68;1.80;;;17.20;75.50;;;;;;4973351;28;20134;-75
2022/08/29 07:37:50;;;;;;;8.67;1.93;;;17.20;75.40;;;;;;4973275;28;20057;-75
2022/08/29 07:40:17;;;;;;;9.00;2.10;;;17.20;75.30;;;;;;4990363;28;20255;-75
2022/08/29 07:42:46;;;;;;;8.88;1.60;;;17.20;75.30;;;;;;4973756;28;20137;-74
2022/08/29 07:45:13;;;;;;;6.00;1.80;;;17.20;75.50;;;;;;4991286;28;20803;-74
2022/08/29 07:47:40;;;;;;;7.53;2.05;;;17.30;75.50;;;;;;4973662;28;20081;-75
2022/08/29 07:50:09;;;;;;;7.80;1.70;;;17.30;75.50;;;;;;4972578;28;20067;-75
2022/08/29 07:52:37;;;;;;;8.07;2.15;;;17.40;75.90;;;;;;4972954;28;20267;-75
2022/08/29 07:55:05;;;;;;;9.23;2.10;;;17.40;76.00;;;;;;4971685;28;20047;-75
2022/08/29 07:57:33;;;;;;;9.15;1.98;;;17.50;75.80;;;;;;4991650;28;20084;-75
2022/08/29 08:00:02;;;;;;;9.10;2.10;;;17.50;75.80;;;;;;4974828;28;20058;-74
2022/08/29 08:02:39;;;;;;;9.80;2.47;;;17.50;76.00;;;;;;4991747;28;20544;-74
2022/08/29 08:05:07;;;;;;;9.07;2.10;;;17.50;76.00;;;;;;4975248;28;20261;-76
2022/08/29 08:07:35;;;;;;;9.93;2.20;;;17.60;76.20;;;;;;4987985;28;20058;-75
2022/08/29 08:10:03;;;;;;;9.27;2.17;;;17.60;76.50;;;;;;4976284;28;20102;-73
2022/08/29 08:12:30;;;;;;;8.20;2.30;;;17.70;76.50;;;;;;4976514;28;20051;-73
2022/08/29 08:14:57;;;;;;;6.37;2.37;;;17.80;76.40;;;;;;4960379;28;20081;-73
2022/08/29 08:17:26;;;;;;;8.32;2.50;;;17.80;76.10;;;;;;4976437;28;20800;-73
2022/08/29 08:19:52;;;;;;;8.18;2.25;;;17.80;76.10;;;;;;4993246;28;20058;-74
2022/08/29 08:22:19;;;;;;;8.88;2.05;;;17.90;76.30;;;;;;4993967;28;20054;-74
2022/08/29 08:24:47;;;;;;;8.60;2.30;;;18.00;76.20;;;;;;4976889;28;20081;-74
2022/08/29 08:27:14;;;;;;;7.40;2.40;;;18.00;76.50;;;;;;4976799;28;20062;-74
2022/08/29 08:29:42;;;;;;;5.68;2.13;;;18.00;76.40;;;;;;4976377;28;20263;-75
2022/08/29 08:32:09;;;;;;;7.45;2.00;;;18.10;76.10;;;;;;4976879;28;20074;-75
2022/08/29 08:34:37;;;;;;;8.32;2.22;;;18.10;76.30;;;;;;4976261;28;20043;-75
2022/08/29 08:37:07;;;;;;;6.10;2.00;;;18.10;76.20;;;;;;4976720;28;20105;-75
2022/08/29 08:39:34;;;;;;;8.40;2.27;;;18.20;76.00;;;;;;4975530;28;20062;-75
2022/08/29 08:42:12;;;;;;;7.55;1.92;;;18.30;75.90;;;;;;4976279;28;20285;-74
2022/08/29 08:45:05;;;;;;;8.00;2.30;;;18.30;75.90;;;;;;4975988;28;20488;-74
2022/08/29 08:47:38;;;;;;;7.35;1.80;;;18.40;75.80;;;;;;4985299;28;20631;-74
2022/08/29 08:50:18;;;;;;;5.65;1.88;;;18.40;75.70;;;;;;4974840;28;20752;-75
2022/08/29 08:52:50;;;;;;;6.23;1.87;;;18.50;75.50;;;;;;4992775;28;20521;-74
2022/08/29 08:55:32;;;;;;;7.00;1.90;;;18.50;75.50;;;;;;4981322;28;20324;-74
2022/08/29 08:58:17;;;;;;;6.25;2.05;;;18.60;75.30;;;;;;5010433;28;20046;-74
2022/08/29 09:00:49;;;;;;;7.57;2.10;;;18.60;75.20;;;;;;4994081;28;20049;-74
2022/08/29 09:03:41;;;;;;;7.80;1.83;;;18.70;74.60;;;;;;5012005;28;20125;-75
2022/08/29 09:06:20;;;;;;;7.63;2.00;;;18.70;74.70;;;;;;4974887;28;20059;-74
2022/08/29 09:09:00;;;;;;;9.40;2.30;;;18.70;74.60;;;;;;4955879;28;20343;-74
2022/08/29 09:11:37;;;;;;;5.70;1.83;;;18.80;74.40;;;;;;4974469;28;20058;-74
2022/08/29 09:14:13;;;;;;;15.27;2.60;;;18.80;74.40;;;;;;4988403;28;20054;-74
2022/08/29 09:16:46;;;;;;;8.55;2.20;;;18.90;74.30;;;;;;4992873;28;20050;-73
2022/08/29 09:19:14;;;;;;;8.67;2.10;;;18.90;74.20;;;;;;4933966;28;20046;-73
2022/08/29 09:21:47;;;;;;;8.15;1.90;;;18.90;74.20;;;;;;4982880;28;20287;-74
2022/08/29 09:24:21;;;;;;;7.22;1.80;;;19.00;74.10;;;;;;4961651;28;20130;-75
2022/08/29 09:26:48;;;;;;;7.88;2.05;;;19.00;74.00;;;;;;4978868;28;20506;-70
2022/08/29 09:29:19;;;;;;;8.40;2.10;;;19.10;74.00;;;;;;4976793;28;20059;-70
2022/08/29 09:32:06;;;;;;;18.33;3.17;;;19.10;73.90;;;;;;4972326;28;20055;-70
2022/08/29 09:34:35;;;;;;;8.95;2.20;;;19.20;73.50;;;;;;4972064;28;20341;-70
2022/08/29 09:37:15;;;;;;;7.18;2.25;;;19.20;73.50;;;;;;4975724;28;20046;-70
2022/08/29 09:39:53;;;;;;;6.32;1.75;;;19.30;73.50;;;;;;4975693;28;20059;-70
2022/08/29 09:42:22;;;;;;;7.32;2.00;;;19.30;73.00;;;;;;4982527;28;20812;-70
2022/08/29 09:44:54;;;;;;;6.03;2.00;;;19.40;72.90;;;;;;4962796;28;20066;-70
2022/08/29 09:47:23;;;;;;;6.68;2.10;;;19.40;72.70;;;;;;4981470;28;20781;-70
2022/08/29 09:50:08;;;;;;;8.48;2.03;;;19.50;72.60;;;;;;4979122;28;20066;-70
2022/08/29 09:52:39;;;;;;;7.60;2.10;;;19.50;72.50;;;;;;4978662;28;20062;-70
2022/08/29 09:55:27;;;;;;;10.80;2.30;;;19.50;72.50;;;;;;4967894;28;20071;-71
2022/08/29 09:57:59;;;;;;;8.20;2.50;;;19.60;72.10;;;;;;4961051;28;20052;-70
2022/08/29 10:00:29;;;;;;;8.07;2.67;;;19.60;72.40;;;;;;4936685;28;20256;-70
2022/08/29 10:02:59;;;;;;;7.43;2.50;;;19.70;72.50;;;;;;4972973;28;20077;-70
2022/08/29 10:05:33;;;;;;;9.50;2.50;;;19.70;72.60;;;;;;4968126;28;20104;-70
2022/08/29 10:08:04;;;;;;;9.05;2.38;;;19.70;72.80;;;;;;4971425;28;20050;-70
2022/08/29 10:10:34;;;;;;;7.20;2.30;;;19.80;72.60;;;;;;4988044;28;20055;-70
2022/08/29 10:13:09;;;;;;;9.10;2.13;;;19.90;72.90;;;;;;4954308;28;20351;-70
2022/08/29 10:15:40;;;;;;;6.53;2.15;;;20.00;72.80;;;;;;4973925;28;20062;-70
2022/08/29 10:18:23;;;;;;;6.63;2.20;;;20.00;72.20;;;;;;4986470;28;20098;-70
2022/08/29 10:21:08;;;;;;;8.15;2.20;;;20.00;72.30;;;;;;4970975;28;20138;-70
2022/08/29 10:23:49;;;;;;;8.23;2.30;;;20.10;72.20;;;;;;4954178;28;20742;-69
2022/08/29 10:26:29;;;;;;;9.05;2.47;;;20.10;72.30;;;;;;4971572;28;20410;-70
2022/08/29 10:29:03;;;;;;;5.80;2.28;;;20.20;72.30;;;;;;4972793;28;20055;-69
2022/08/29 10:31:36;;;;;;;6.65;2.20;;;20.30;71.70;;;;;;4981323;28;20091;-69
2022/08/29 10:34:21;;;;;;;8.68;2.53;;;20.30;71.60;;;;;;4955260;28;20050;-70
2022/08/29 10:36:57;;;;;;;7.63;2.50;;;20.30;71.50;;;;;;4973174;28;20055;-70
2022/08/29 10:39:35;;;;;;;7.30;2.70;;;20.40;71.20;;;;;;4969386;28;20371;-69
2022/08/29 10:42:08;;;;;;;8.57;2.70;;;20.50;71.20;;;;;;4969898;28;20063;-69
2022/08/29 10:44:45;;;;;;;9.40;2.72;;;20.50;70.30;;;;;;4970351;28;20053;-70
2022/08/29 10:47:30;;;;;;;10.35;2.63;;;20.50;70.20;;;;;;4970348;28;20082;-70
2022/08/29 10:50:27;;;;;;;7.23;2.53;;;20.50;70.60;;;;;;4966934;28;20058;-70
2022/08/29 10:53:03;;;;;;;8.75;2.53;;;20.60;70.90;;;;;;4965701;28;20266;-69
2022/08/29 10:55:43;;;;;;;9.05;2.63;;;20.60;70.30;;;;;;4979759;28;20475;-69
2022/08/29 10:58:22;;;;;;;9.18;2.50;;;20.60;70.30;;;;;;4982582;28;20139;-69
2022/08/29 11:00:54;;;;;;;10.60;2.78;;;20.70;70.30;;;;;;4982459;28;20391;-69
2022/08/29 11:03:32;;;;;;;9.13;3.23;;;20.70;70.50;;;;;;4979033;28;20580;-69
2022/08/29 11:06:03;;;;;;;8.85;2.85;;;20.70;70.40;;;;;;4981855;28;20351;-69
2022/08/29 11:08:36;;;;;;;7.18;2.75;;;20.80;69.80;;;;;;4972119;28;20143;-69
2022/08/29 11:11:04;;;;;;;7.88;2.45;;;20.80;69.70;;;;;;4954562;28;20134;-69
2022/08/29 11:13:37;;;;;;;8.10;2.80;;;20.90;69.80;;;;;;4966645;28;20130;-69
2022/08/29 11:16:10;;;;;;;7.03;2.70;;;20.90;69.10;;;;;;4969362;28;20087;-69
2022/08/29 11:18:42;;;;;;;9.30;2.85;;;20.90;69.00;;;;;;4976940;28;20280;-69
2022/08/29 11:21:23;;;;;;;10.07;2.80;;;21.00;69.00;;;;;;4982715;28;20060;-69
2022/08/29 11:23:50;;;;;;;7.93;3.20;;;21.00;68.90;;;;;;4973982;28;20058;-70
2022/08/29 11:26:31;;;;;;;6.68;2.85;;;21.00;68.80;;;;;;4973460;28;20055;-69
2022/08/29 11:29:09;;;;;;;8.67;3.00;;;21.10;68.70;;;;;;4973516;28;20129;-70
2022/08/29 11:31:48;;;;;;;9.25;2.97;;;21.10;68.40;;;;;;4991066;28;20254;-70
2022/08/29 11:34:30;;;;;;;9.10;2.92;;;21.10;68.30;;;;;;4973762;28;20054;-70
2022/08/29 11:37:16;;;;;;;8.18;3.10;;;21.10;68.20;;;;;;4966514;28;20055;-70
2022/08/29 11:39:57;;;;;;;9.38;3.40;;;21.10;68.10;;;;;;4970991;28;20812;-70
2022/08/29 11:42:29;;;;;;;9.13;3.47;;;21.10;68.00;;;;;;4988607;28;20159;-70
2022/08/29 11:44:59;;;;;;;9.77;3.55;;;21.10;67.80;;;;;;4978696;28;20279;-70
2022/08/29 11:47:40;;;;;;;11.48;3.60;;;21.10;67.70;;;;;;4981471;28;20070;-70
2022/08/29 11:50:21;;;;;;;7.88;3.22;;;21.10;67.70;;;;;;4970648;28;20055;-69
2022/08/29 11:52:54;;;;;;;9.57;3.45;;;21.10;67.70;;;;;;4975919;28;20073;-69
2022/08/29 11:55:30;;;;;;;9.03;3.33;;;21.10;67.70;;;;;;4970379;28;20051;-70
2022/08/29 11:58:06;;;;;;;7.80;2.85;;;21.10;67.60;;;;;;4983551;28;20272;-69
2022/08/29 12:00:43;;;;;;;8.60;3.45;;;21.10;67.50;;;;;;4967270;28;20121;-69
2022/08/29 12:03:50;;;;;;;7.50;3.50;;;21.10;67.50;;;;;;4973181;28;20058;-69
2022/08/29 12:06:28;;;;;;;9.18;3.08;;;21.20;67.30;;;;;;4976724;28;20502;-70
2022/08/29 12:09:02;;;;;;;5.73;2.90;;;21.20;67.20;;;;;;4969751;28;20057;-69
2022/08/29 12:12:26;;;;;;;8.35;3.10;;;21.20;67.10;;;;;;4953461;28;20354;-70
2022/08/29 12:14:54;;;;;;;7.78;3.22;;;21.20;67.00;;;;;;4986591;28;20167;-69
2022/08/29 12:17:42;;;;;;;7.25;2.92;;;21.20;67.20;;;;;;4983155;28;20047;-69
2022/08/29 12:20:41;;;;;;;8.48;2.75;;;21.30;67.30;;;;;;4951311;28;20047;-70
2022/08/29 12:23:19;;;;;;;9.50;3.00;;;21.30;67.40;;;;;;4986564;28;20224;-69
2022/08/29 12:25:49;;;;;;;7.32;3.17;;;21.30;67.60;;;;;;4971230;28;20275;-70
2022/08/29 12:28:36;;;;;;;10.73;3.13;;;21.40;67.90;;;;;;4971365;28;20137;-69
2022/08/29 12:31:11;;;;;;;6.65;2.90;;;21.40;67.80;;;;;;4971052;28;20143;-70
2022/08/29 12:33:52;;;;;;;6.65;2.85;;;21.40;67.90;;;;;;4937927;28;20067;-70
2022/08/29 12:36:30;;;;;;;9.10;3.07;;;21.50;67.80;;;;;;5004253;23;20150;-70
2022/08/29 12:39:19;;;;;;;7.20;3.00;;;21.50;67.70;;;;;;4970861;28;20255;-70
2022/08/29 12:42:01;;;;;;;6.47;2.95;;;21.50;67.90;;;;;;4970934;28;20054;-70
2022/08/29 12:44:33;;;;;;;7.82;2.80;;;21.50;67.80;;;;;;4988906;28;20047;-70
2022/08/29 12:47:06;;;;;;;7.05;2.80;;;21.50;67.80;;;;;;4972870;28;20055;-70
2022/08/29 12:49:47;;;;;;;7.63;2.80;;;21.60;67.80;;;;;;4972720;28;20053;-69
2022/08/29 12:52:24;;;;;;;6.05;2.75;;;21.70;67.30;;;;;;4974030;28;20887;-70
2022/08/29 12:54:51;;;;;;;7.68;3.28;;;21.70;67.20;;;;;;4988762;28;20099;-70
2022/08/29 12:57:20;;;;;;;7.20;2.85;;;21.70;67.10;;;;;;4956894;28;20589;-69
2022/08/29 12:59:49;;;;;;;6.90;2.47;;;21.70;67.00;;;;;;4956055;28;20083;-69
2022/08/29 13:02:27;;;;;;;5.93;2.60;;;21.80;66.90;;;;;;4973868;28;20060;-70
2022/08/29 13:04:55;;;;;;;17.08;3.72;;;21.80;66.60;;;;;;4988968;28;20335;-69